Catalonia — 9HWS7 — position and weather

sailwx.info

Track history (hours):
 
Tides and Currents Weather Stations Pressure Air Temp Water Temp Dewpoint Dewpoint Depression Visibility Wind Speed Wind Dir Waves Ship Positions

Catalonia

Last reported at 2017-Aug-19 14:33 UTC. Time now 2017-Aug-19 15:05 UTC.
Position N 48°06' W 005°39'.

Length 189 m; draft 10.1 m.

Type: Cargo ship. MMSI: 215929000.

Date/timePositionNaut miles runAvg speedWind from/ knotsBaromVisibWave heightAir tempDewpointWater temp
2017-Aug-19 14:33N 48°06' W 005°39'10610.2
2017-Aug-19 04:10N 49°33' W 004°06'211.0
2017-Aug-19 04:00N 49°34' W 004°03'510.7
2017-Aug-19 03:30N 49°36' W 003°56'510.7
2017-Aug-19 03:00N 49°39' W 003°49'510.6
2017-Aug-19 02:30N 49°42' W 003°42'510.8
2017-Aug-19 02:00N 49°45' W 003°35'611.2
2017-Aug-19 01:30N 49°48' W 003°28'611.3
2017-Aug-19 01:00N 49°50' W 003°20'611.7
2017-Aug-19 00:30N 49°53' W 003°12'612.1
2017-Aug-19 00:00N 49°56' W 003°04'612.3
2017-Aug-18 23:30N 49°59' W 002°56'612.7
2017-Aug-18 23:00N 50°01' W 002°46'713.1
2017-Aug-18 22:30N 50°03' W 002°36'2213.0
2017-Aug-18 20:51N 50°09' W 002°04'412.2
2017-Aug-18 20:30N 50°10' W 001°58'611.6
2017-Aug-18 20:01N 50°11' W 001°49'611.0
2017-Aug-18 19:31N 50°13' W 001°41'510.5
2017-Aug-18 19:00N 50°14' W 001°33'510.0
2017-Aug-18 18:30N 50°16' W 001°25'5 9.5
2017-Aug-18 18:00N 50°17' W 001°18'5 9.2
2017-Aug-18 17:30N 50°18' W 001°11'2910.0
2017-Aug-18 14:36N 50°25' W 000°27'111.4
2017-Aug-18 14:30N 50°25' W 000°25'1212.2
2017-Aug-18 13:30N 50°29' W 000°07'612.9
2017-Aug-18 13:00N 50°30' E 000°03'713.1
2017-Aug-18 12:30N 50°32' E 000°13'713.1
2017-Aug-18 12:00N 50°34' E 000°23'713.1
2017-Aug-18 11:30N 50°36' E 000°32'612.5
2017-Aug-18 11:00N 50°39' E 000°41'612.2
2017-Aug-18 10:30N 50°43' E 000°48'611.9
2017-Aug-18 10:00N 50°46' E 000°57'1211.4
2017-Aug-18 08:58N 50°52' E 001°12'610.8
2017-Aug-18 08:26N 50°56' E 001°20'410.3
2017-Aug-18 08:00N 50°59' E 001°24'510.4
2017-Aug-18 07:30N 51°03' E 001°29'510.6
2017-Aug-18 07:00N 51°06' E 001°36'611.5
2017-Aug-18 06:30N 51°11' E 001°42'612.7
2017-Aug-18 06:00N 51°16' E 001°48'713.5
2017-Aug-18 05:30N 51°21' E 001°54'611.4
2017-Aug-18 05:00N 51°25' E 002°01'613.0
2017-Aug-18 04:30N 51°22' E 002°10'612.5
2017-Aug-18 04:00N 51°21' E 002°19'713.6
2017-Aug-18 03:31N 51°23' E 002°30'713.1
2017-Aug-18 03:01N 51°23' E 002°40'510.2
2017-Aug-18 02:31N 51°22' E 002°48'612.7
2017-Aug-18 02:01N 51°23' E 002°58'612.5
2017-Aug-18 01:31N 51°24' E 003°08'713.7
2017-Aug-18 01:01N 51°25' E 003°19'714.2
2017-Aug-18 00:30N 51°25' E 003°31'4 7.8
2017-Aug-18 00:00N 51°26' E 003°37'5 9.4
2017-Aug-17 23:30N 51°23' E 003°43'612.8
2017-Aug-17 23:01N 51°21' E 003°52'612.1
2017-Aug-17 22:31N 51°26' E 003°58'4 8.4
2017-Aug-17 22:00N 51°23' E 004°03'4 9.0
2017-Aug-17 21:31N 51°23' E 004°10'3 6.9
2017-Aug-17 21:01N 51°21' E 004°14'2 3.5
2017-Aug-17 20:30N 51°21' E 004°17'0 0.0
2017-Aug-17 20:00N 51°21' E 004°17'0 0.6
2017-Aug-17 19:31N 51°21' E 004°18'3 6.6
2017-Aug-17 19:00N 51°18' E 004°20'2 3.6
2017-Aug-17 18:30N 51°17' E 004°22'0 0.1
2017-Aug-17 18:01N 51°17' E 004°22'0 0.0
2017-Aug-17 17:31N 51°17' E 004°22'0 0.0
2017-Aug-17 17:00N 51°17' E 004°22'0 0.0
2017-Aug-17 16:31N 51°17' E 004°22'0 0.0
2017-Aug-17 16:01N 51°17' E 004°22'0 0.0
2017-Aug-17 15:31N 51°17' E 004°22'0 0.0
2017-Aug-17 15:00N 51°17' E 004°22'0 0.0
2017-Aug-17 14:31N 51°17' E 004°22'0 0.0
2017-Aug-17 14:00N 51°17' E 004°22'0 0.0
2017-Aug-17 13:31N 51°17' E 004°22'0 0.0
2017-Aug-17 13:01N 51°17' E 004°22'0 0.0
2017-Aug-17 12:31N 51°17' E 004°22'0 0.0
2017-Aug-17 12:00N 51°17' E 004°22'0 0.0
2017-Aug-17 11:30N 51°17' E 004°22'0 0.0
2017-Aug-17 11:00N 51°17' E 004°22'0 0.0
2017-Aug-17 10:31N 51°17' E 004°22'0 0.0
2017-Aug-17 10:00N 51°17' E 004°22'0 0.0
2017-Aug-17 09:31N 51°17' E 004°22'0 0.0
2017-Aug-17 09:01N 51°17' E 004°22'0 0.0
2017-Aug-17 08:31N 51°17' E 004°22'0 0.0
2017-Aug-17 08:01N 51°17' E 004°22'0 0.0
2017-Aug-17 07:30N 51°17' E 004°22'0 0.0
2017-Aug-17 07:00N 51°17' E 004°22'0 0.0
2017-Aug-17 06:30N 51°17' E 004°22'0 0.0
2017-Aug-17 06:00N 51°17' E 004°22'0 0.0
2017-Aug-17 05:30N 51°17' E 004°22'0 0.0
2017-Aug-17 05:01N 51°17' E 004°22'0 0.0
2017-Aug-17 04:31N 51°17' E 004°22'0 0.0
2017-Aug-17 04:01N 51°17' E 004°22'0 0.0
2017-Aug-17 03:31N 51°17' E 004°22'0 0.0
2017-Aug-17 03:00N 51°17' E 004°22'0 0.0
2017-Aug-17 02:30N 51°17' E 004°22'0 0.0
2017-Aug-17 02:01N 51°17' E 004°22'0 0.0
2017-Aug-17 01:31N 51°17' E 004°22'0 0.0
2017-Aug-17 01:00N 51°17' E 004°22'0 0.0
2017-Aug-17 00:31N 51°17' E 004°22'0 0.0
2017-Aug-17 00:01N 51°17' E 004°22'0 0.0
2017-Aug-16 23:31N 51°17' E 004°22'0 0.0
2017-Aug-16 23:01N 51°17' E 004°22'0 0.0
2017-Aug-16 22:30N 51°17' E 004°22'0 0.0
2017-Aug-16 22:00N 51°17' E 004°22'0 0.0
2017-Aug-16 21:30N 51°17' E 004°22'0 0.0
2017-Aug-16 21:01N 51°17' E 004°22'0 0.0
2017-Aug-16 20:30N 51°17' E 004°22'0 0.0
2017-Aug-16 20:01N 51°17' E 004°22'0 0.0
2017-Aug-16 19:31N 51°17' E 004°22'0 0.0
2017-Aug-16 19:00N 51°17' E 004°22'0 0.0
2017-Aug-16 18:31N 51°17' E 004°22'0 0.0
2017-Aug-16 18:01N 51°17' E 004°22'0 0.0
2017-Aug-16 17:31N 51°17' E 004°22'0 0.0
2017-Aug-16 17:01N 51°17' E 004°22'0 0.0
2017-Aug-16 16:31N 51°17' E 004°22'0 0.0
2017-Aug-16 16:01N 51°17' E 004°22'0 0.0
2017-Aug-16 15:30N 51°17' E 004°22'0 0.0
2017-Aug-16 15:00N 51°17' E 004°22'0 0.0
2017-Aug-16 14:31N 51°17' E 004°22'0 0.0
2017-Aug-16 14:01N 51°17' E 004°22'0 0.0
2017-Aug-16 13:31N 51°17' E 004°22'0 0.0
2017-Aug-16 13:01N 51°17' E 004°22'0 0.0
2017-Aug-16 12:30N 51°17' E 004°22'0 0.0
2017-Aug-16 12:00N 51°17' E 004°22'0 0.0
2017-Aug-16 11:30N 51°17' E 004°22'0 0.0
2017-Aug-16 11:00N 51°17' E 004°22'0 0.0
2017-Aug-16 10:31N 51°17' E 004°22'0 0.0
2017-Aug-16 10:00N 51°17' E 004°22'0 0.0
2017-Aug-16 09:31N 51°17' E 004°22'0 0.0
2017-Aug-16 09:01N 51°17' E 004°22'0 0.0
2017-Aug-16 08:31N 51°17' E 004°22'0 0.1
2017-Aug-16 08:01N 51°17' E 004°22'2 3.6
2017-Aug-16 07:31N 51°18' E 004°20'3 6.5
2017-Aug-16 07:01N 51°21' E 004°17'0 0.6
2017-Aug-16 06:30N 51°21' E 004°17'0 0.0
2017-Aug-16 06:01N 51°21' E 004°17'2 3.1
2017-Aug-16 05:31N 51°21' E 004°15'4 7.7
2017-Aug-16 05:01N 51°23' E 004°09'510.7
2017-Aug-16 04:30N 51°25' E 004°02'510.7
2017-Aug-16 04:00N 51°22' E 003°55'612.1
2017-Aug-16 03:30N 51°22' E 003°45'611.6
2017-Aug-16 03:00N 51°26' E 003°40'3 6.9
2017-Aug-16 02:30N 51°26' E 003°34'5 9.8
2017-Aug-16 02:00N 51°30' E 003°28'611.1
2017-Aug-16 01:30N 51°35' E 003°24'5 9.7
2017-Aug-16 01:00N 51°39' E 003°20'611.4
2017-Aug-16 00:30N 51°44' E 003°15'610.0
2017-Aug-15 23:54N 51°50' E 003°16'1 3.0
2017-Aug-15 23:30N 51°51' E 003°17'1 1.5
2017-Aug-15 23:00N 51°52' E 003°17'3 6.7
2017-Aug-15 22:30N 51°55' E 003°18'3 6.2
2017-Aug-15 22:00N 51°58' E 003°19'0 0.3
2017-Aug-15 21:30N 51°58' E 003°19'0 0.5
2017-Aug-15 21:00N 51°58' E 003°19'0 0.8
2017-Aug-15 20:30N 51°58' E 003°19'2 3.9
2017-Aug-15 20:00N 52°00' E 003°20'3 6.1
2017-Aug-15 19:30N 52°03' E 003°21'612.3
2017-Aug-15 19:00N 52°10' E 003°22'4 4.7
2017-Aug-15 18:14N 52°13' E 003°25'2 6.1
2017-Aug-15 17:59N 52°14' E 003°26'1 0.7
2017-Aug-15 17:11N 52°14' E 003°26'0 0.5
2017-Aug-15 16:55N 52°14' E 003°25'0 0.5
2017-Aug-15 16:29N 52°14' E 003°25'1 1.0
2017-Aug-15 15:58N 52°14' E 003°25'1 2.4
2017-Aug-15 15:30N 52°16' E 003°25'4 8.5
2017-Aug-15 14:59N 52°20' E 003°25'613.6
2017-Aug-15 14:30N 52°26' E 003°25'2513.3
2017-Aug-15 12:38N 52°48' E 003°44'212.9
2017-Aug-15 12:29N 52°50' E 003°47'612.7
2017-Aug-15 12:00N 52°54' E 003°54'612.4
2017-Aug-15 11:29N 52°58' E 004°02'612.1
2017-Aug-15 11:00N 53°02' E 004°09'611.8
2017-Aug-15 10:30N 53°06' E 004°17'611.5
2017-Aug-15 10:00N 53°10' E 004°23'510.7
2017-Aug-15 09:30N 53°15' E 004°28'510.5
2017-Aug-15 09:00N 53°19' E 004°31'510.8
2017-Aug-15 08:30N 53°25' E 004°34'510.8
2017-Aug-15 08:00N 53°29' E 004°40'612.9
2017-Aug-15 07:30N 53°31' E 004°50'713.6
2017-Aug-15 07:00N 53°34' E 005°00'713.8
2017-Aug-15 06:30N 53°36' E 005°11'713.9
2017-Aug-15 06:00N 53°39' E 005°22'713.9
2017-Aug-15 05:30N 53°41' E 005°34'713.7
2017-Aug-15 05:00N 53°43' E 005°45'713.6
2017-Aug-15 04:30N 53°45' E 005°56'6012.7
2017-Aug-14 23:45N 54°01' E 007°34'312.8
2017-Aug-14 23:30N 54°01' E 007°39'613.0
2017-Aug-14 23:00N 54°01' E 007°50'713.7
2017-Aug-14 22:30N 54°01' E 008°02'713.4
2017-Aug-14 22:00N 54°01' E 008°13'715.1
2017-Aug-14 21:30N 53°59' E 008°26'816.8
2017-Aug-14 21:00N 53°56' E 008°39'815.4
2017-Aug-14 20:31N 53°50' E 008°48'816.4
2017-Aug-14 20:00N 53°52' E 009°02'611.6
2017-Aug-14 19:30N 53°53' E 009°11'510.8
2017-Aug-14 19:00N 53°51' E 009°20'612.5
2017-Aug-14 18:30N 53°45' E 009°24'611.8
2017-Aug-14 18:00N 53°41' E 009°30'5 9.8
2017-Aug-14 17:30N 53°36' E 009°35'5 9.7
2017-Aug-14 17:00N 53°34' E 009°42'5 9.4
2017-Aug-14 16:30N 53°33' E 009°50'4 7.2
2017-Aug-14 16:01N 53°32' E 009°56'3 5.3
2017-Aug-14 15:30N 53°30' E 009°58'1 2.5
2017-Aug-14 15:00N 53°29' E 009°59'0 0.0
2017-Aug-14 14:30N 53°29' E 009°59'0 0.0
2017-Aug-14 14:00N 53°29' E 009°59'0 0.0
2017-Aug-14 13:30N 53°29' E 009°59'0 0.0
2017-Aug-14 13:00N 53°29' E 009°59'0 0.0
2017-Aug-14 12:30N 53°29' E 009°59'0 0.0
2017-Aug-14 12:00N 53°29' E 009°59'0 0.0
2017-Aug-14 11:30N 53°29' E 009°59'0 0.0
2017-Aug-14 11:00N 53°29' E 009°59'0 0.0
2017-Aug-14 10:30N 53°29' E 009°59'0 0.0
2017-Aug-14 10:00N 53°29' E 009°59'0 0.0
2017-Aug-14 09:30N 53°29' E 009°59'0 0.0
2017-Aug-14 09:00N 53°29' E 009°59'0 0.0
2017-Aug-14 08:30N 53°29' E 009°59'0 0.0
2017-Aug-14 08:00N 53°29' E 009°59'0 0.0
2017-Aug-14 07:30N 53°29' E 009°59'0 0.0
2017-Aug-14 07:00N 53°29' E 009°59'0 0.0
2017-Aug-14 06:30N 53°29' E 009°59'0 0.0
2017-Aug-14 06:00N 53°29' E 009°59'0 0.0
2017-Aug-14 05:30N 53°29' E 009°59'0 0.0
2017-Aug-14 05:00N 53°29' E 009°59'0 0.0
2017-Aug-14 04:27N 53°29' E 009°59'0 0.0
2017-Aug-14 04:00N 53°29' E 009°59'0 0.0
2017-Aug-14 03:30N 53°29' E 009°59'0 0.0
2017-Aug-14 03:00N 53°29' E 009°59'0 0.0
2017-Aug-14 02:30N 53°29' E 009°59'0 0.0
2017-Aug-14 02:00N 53°29' E 009°59'0 0.0
2017-Aug-14 01:30N 53°29' E 009°59'0 0.0
2017-Aug-14 01:00N 53°29' E 009°59'0 0.0
2017-Aug-14 00:30N 53°29' E 009°59'0 0.0
2017-Aug-14 00:00N 53°29' E 009°59'0 0.0
2017-Aug-13 23:30N 53°29' E 009°59'0 0.0
2017-Aug-13 23:00N 53°29' E 009°59'0 0.0
2017-Aug-13 22:30N 53°29' E 009°59'0 0.0
2017-Aug-13 22:00N 53°29' E 009°59'0 0.0
2017-Aug-13 21:30N 53°29' E 009°59'0 0.0
2017-Aug-13 21:00N 53°29' E 009°59'0 0.0
2017-Aug-13 20:30N 53°29' E 009°59'0 0.0
2017-Aug-13 20:00N 53°29' E 009°59'0 0.0
2017-Aug-13 19:30N 53°29' E 009°59'0 0.0
2017-Aug-13 19:00N 53°29' E 009°59'0 0.0
2017-Aug-13 18:30N 53°29' E 009°59'0 0.0
2017-Aug-13 18:00N 53°29' E 009°59'0 0.0
2017-Aug-13 17:30N 53°29' E 009°59'0 0.0
2017-Aug-13 17:00N 53°29' E 009°59'0 0.0
2017-Aug-13 16:30N 53°29' E 009°59'0 0.0
2017-Aug-13 16:00N 53°29' E 009°59'0 0.0
2017-Aug-13 15:30N 53°29' E 009°59'0 0.0
2017-Aug-13 15:00N 53°29' E 009°59'0 0.0
2017-Aug-13 14:30N 53°29' E 009°59'0 0.0
2017-Aug-13 14:00N 53°29' E 009°59'0 0.0
2017-Aug-13 13:30N 53°29' E 009°59'0 0.0
2017-Aug-13 13:00N 53°29' E 009°59'0 0.0
2017-Aug-13 12:30N 53°29' E 009°59'0 0.0
2017-Aug-13 12:00N 53°29' E 009°59'0 0.0
2017-Aug-13 11:30N 53°29' E 009°59'0 0.0
2017-Aug-13 11:00N 53°29' E 009°59'0 0.0
2017-Aug-13 10:30N 53°29' E 009°59'0 0.0
2017-Aug-13 10:00N 53°29' E 009°59'0 0.0
2017-Aug-13 09:30N 53°29' E 009°59'0 0.0
2017-Aug-13 09:00N 53°29' E 009°59'0 0.0
2017-Aug-13 08:30N 53°29' E 009°59'0 0.0
2017-Aug-13 08:00N 53°29' E 009°59'0 0.0
2017-Aug-13 07:30N 53°29' E 009°59'0 0.0
2017-Aug-13 07:00N 53°29' E 009°59'0 0.0
2017-Aug-13 06:30N 53°29' E 009°59'0 0.0
2017-Aug-13 06:00N 53°29' E 009°59'0 0.0
2017-Aug-13 05:30N 53°29' E 009°59'0 0.0
2017-Aug-13 05:00N 53°29' E 009°59'0 0.0
2017-Aug-13 04:30N 53°29' E 009°59'0 0.0
2017-Aug-13 04:00N 53°29' E 009°59'0 0.0
2017-Aug-13 03:30N 53°29' E 009°59'0 0.0
2017-Aug-13 03:00N 53°29' E 009°59'0 0.0
2017-Aug-13 02:30N 53°29' E 009°59'0 0.0
2017-Aug-13 02:00N 53°29' E 009°59'0 0.0
2017-Aug-13 01:27N 53°29' E 009°59'0 0.0
2017-Aug-13 01:00N 53°29' E 009°59'0 0.0
2017-Aug-13 00:30N 53°29' E 009°59'0 0.0
2017-Aug-13 00:00N 53°29' E 009°59'0 0.0
2017-Aug-12 23:27N 53°29' E 009°59'0 0.0
2017-Aug-12 23:00N 53°29' E 009°59'0 0.0
2017-Aug-12 22:30N 53°29' E 009°59'0 0.0
2017-Aug-12 22:00N 53°29' E 009°59'0 0.0
2017-Aug-12 21:30N 53°29' E 009°59'0 0.0
2017-Aug-12 21:00N 53°29' E 009°59'0 0.0
2017-Aug-12 20:30N 53°29' E 009°59'0 0.0
2017-Aug-12 20:00N 53°29' E 009°59'0 0.0
2017-Aug-12 19:30N 53°29' E 009°59'0 0.0
2017-Aug-12 19:00N 53°29' E 009°59'0 0.0
2017-Aug-12 18:30N 53°29' E 009°59'0 0.0
2017-Aug-12 18:00N 53°29' E 009°59'0 0.0
2017-Aug-12 17:30N 53°29' E 009°59'0 0.0
2017-Aug-12 17:00N 53°29' E 009°59'0 0.0
2017-Aug-12 16:30N 53°29' E 009°59'0 0.0
2017-Aug-12 16:00N 53°29' E 009°59'0 0.0
2017-Aug-12 15:27N 53°29' E 009°59'0 0.0
2017-Aug-12 15:00N 53°29' E 009°59'0 0.0
2017-Aug-12 14:30N 53°29' E 009°59'0 0.0
2017-Aug-12 14:00N 53°29' E 009°59'0 0.0
2017-Aug-12 13:30N 53°29' E 009°59'0 0.0
2017-Aug-12 13:00N 53°29' E 009°59'0 0.0
2017-Aug-12 12:30N 53°29' E 009°59'0 0.0
2017-Aug-12 12:00N 53°29' E 009°59'0 0.0
2017-Aug-12 11:30N 53°29' E 009°59'0 0.0
2017-Aug-12 11:00N 53°29' E 009°59'0 0.0
2017-Aug-12 10:30N 53°29' E 009°59'0 0.0
2017-Aug-12 10:00N 53°29' E 009°59'0 0.0
2017-Aug-12 09:30N 53°29' E 009°59'0 0.0
2017-Aug-12 09:00N 53°29' E 009°59'0 0.0
2017-Aug-12 08:28N 53°29' E 009°59'0 0.0
2017-Aug-12 07:58N 53°29' E 009°59'0 0.0
2017-Aug-12 07:28N 53°29' E 009°59'0 0.0
2017-Aug-12 06:55N 53°29' E 009°59'0 0.0
2017-Aug-12 06:28N 53°29' E 009°59'0 0.0
2017-Aug-12 05:58N 53°29' E 009°59'0 0.0
2017-Aug-12 05:28N 53°29' E 009°59'0 0.0
2017-Aug-12 04:58N 53°29' E 009°59'0 0.0
2017-Aug-12 04:28N 53°29' E 009°59'0 0.0
2017-Aug-12 03:58N 53°29' E 009°59'0 0.0
2017-Aug-12 03:28N 53°29' E 009°59'0 0.0
2017-Aug-12 02:58N 53°29' E 009°59'0 0.0
2017-Aug-12 02:28N 53°29' E 009°59'0 0.0
2017-Aug-12 01:58N 53°29' E 009°59'0 0.0
2017-Aug-12 01:28N 53°29' E 009°59'0 0.0
2017-Aug-12 00:58N 53°29' E 009°59'0 0.0
2017-Aug-12 00:28N 53°29' E 009°59'0 0.0
2017-Aug-11 23:58N 53°29' E 009°59'0 0.3
2017-Aug-11 23:31N 53°29' E 009°59'1 2.0
2017-Aug-11 23:01N 53°30' E 009°58'1 1.0
2017-Aug-11 22:30N 53°30' E 009°57'0 0.1
2017-Aug-11 22:01N 53°30' E 009°57'0 0.0
2017-Aug-11 21:29N 53°30' E 009°57'0 0.0
2017-Aug-11 20:59N 53°30' E 009°57'0 0.0
2017-Aug-11 20:29N 53°30' E 009°57'0 0.0
2017-Aug-11 19:59N 53°30' E 009°57'0 0.0
2017-Aug-11 19:29N 53°30' E 009°57'0 0.0
2017-Aug-11 18:59N 53°30' E 009°57'0 0.0
2017-Aug-11 18:29N 53°30' E 009°57'0 0.0
2017-Aug-11 17:59N 53°30' E 009°57'0 0.0
2017-Aug-11 17:26N 53°30' E 009°57'0 0.0
2017-Aug-11 16:59N 53°30' E 009°57'0 0.0
2017-Aug-11 16:29N 53°30' E 009°57'0 0.0
2017-Aug-11 15:59N 53°30' E 009°57'0 0.0
2017-Aug-11 15:29N 53°30' E 009°57'0 0.0
2017-Aug-11 14:59N 53°30' E 009°57'0 0.0
2017-Aug-11 13:59N 53°30' E 009°57'0 0.5
2017-Aug-11 13:31N 53°30' E 009°57'3 5.3
2017-Aug-11 13:01N 53°32' E 009°54'4 8.5
2017-Aug-11 12:30N 53°33' E 009°47'4 8.9
2017-Aug-11 12:01N 53°34' E 009°40'510.7
2017-Aug-11 11:31N 53°37' E 009°33'510.2
2017-Aug-11 11:00N 53°42' E 009°29'612.0
2017-Aug-11 10:30N 53°47' E 009°23'611.5
2017-Aug-11 10:01N 53°52' E 009°18'510.6
2017-Aug-11 09:30N 53°53' E 009°09'4 8.1
2017-Aug-11 09:00N 53°52' E 009°02'510.5
2017-Aug-11 08:30N 53°50' E 008°54'510.0
2017-Aug-11 08:00N 53°51' E 008°45'510.3
2017-Aug-11 07:30N 53°55' E 008°40'510.4
2017-Aug-11 07:00N 53°58' E 008°33'510.3
2017-Aug-11 06:30N 53°59' E 008°24'611.9
2017-Aug-11 06:01N 53°60' E 008°14'5 9.6
2017-Aug-11 05:31N 53°59' E 008°06'4 8.4
2017-Aug-11 05:00N 53°58' E 007°59'611.6
2017-Aug-11 04:30N 53°57' E 007°49'7612.5
2017-Aug-10 22:27N 53°38' E 005°45'1114.0
2017-Aug-10 21:40N 53°35' E 005°28'213.6
2017-Aug-10 21:30N 53°34' E 005°24'713.6
2017-Aug-10 21:00N 53°32' E 005°14'713.7
2017-Aug-10 20:31N 53°29' E 005°03'713.8
2017-Aug-10 20:00N 53°27' E 004°52'714.1
2017-Aug-10 19:30N 53°23' E 004°42'714.8
2017-Aug-10 19:00N 53°17' E 004°36'714.8
2017-Aug-10 18:30N 53°10' E 004°30'815.1
2017-Aug-10 18:00N 53°03' E 004°25'815.0
2017-Aug-10 17:30N 52°57' E 004°19'714.8
2017-Aug-10 17:00N 52°50' E 004°13'714.7
2017-Aug-10 16:30N 52°44' E 004°06'714.6
2017-Aug-10 16:00N 52°38' E 003°59'714.4
2017-Aug-10 15:30N 52°34' E 003°50'814.1
2017-Aug-10 14:56N 52°28' E 003°40'5912.5
2017-Aug-10 10:14N 51°46' E 002°33'311.1
2017-Aug-10 09:58N 51°44' E 002°31'511.0
2017-Aug-10 09:30N 51°40' E 002°25'611.2
2017-Aug-10 09:00N 51°35' E 002°20'611.2
2017-Aug-10 08:30N 51°31' E 002°14'611.7
2017-Aug-10 08:00N 51°26' E 002°08'612.1
2017-Aug-10 07:30N 51°22' E 002°02'612.1
2017-Aug-10 07:01N 51°17' E 001°55'612.0
2017-Aug-10 06:30N 51°13' E 001°49'612.2
2017-Aug-10 06:01N 51°08' E 001°43'612.5
2017-Aug-10 05:31N 51°03' E 001°37'713.0
2017-Aug-10 05:00N 50°58' E 001°30'713.3
2017-Aug-10 04:30N 50°53' E 001°24'714.0
2017-Aug-10 04:00N 50°46' E 001°22'713.6
2017-Aug-10 03:30N 50°40' E 001°16'1713.6
2017-Aug-10 02:16N 50°29' E 000°56'513.4
2017-Aug-10 01:55N 50°27' E 000°49'1213.3
2017-Aug-10 01:01N 50°24' E 000°31'013.6
2017-Aug-10 01:00N 50°24' E 000°30'713.5
2017-Aug-10 00:30N 50°23' E 000°20'713.7
2017-Aug-10 00:00N 50°21' E 000°10'714.0
2017-Aug-09 23:30N 50°19' W 000°00'714.2
2017-Aug-09 23:00N 50°17' W 000°11'714.6
2017-Aug-09 22:30N 50°15' W 000°22'2215.1
2017-Aug-09 21:01N 50°09' W 000°56'015.1
2017-Aug-09 21:00N 50°08' W 000°56'815.5
2017-Aug-09 20:30N 50°07' W 001°08'815.5
2017-Aug-09 20:01N 50°05' W 001°20'815.2
2017-Aug-09 19:30N 50°03' W 001°31'714.9
2017-Aug-09 19:01N 50°01' W 001°42'714.3
2017-Aug-09 18:30N 49°59' W 001°53'713.8
2017-Aug-09 18:00N 49°57' W 002°03'712.9
2017-Aug-09 17:30N 49°56' W 002°13'1012.0
2017-Aug-09 16:42N 49°53' W 002°27'1012.0
2017-Aug-09 15:51N 49°50' W 002°43'411.6
2017-Aug-09 15:31N 49°49' W 002°48'611.6
2017-Aug-09 15:01N 49°48' W 002°57'  
Track history (hours):
 
Tides and Currents Weather Stations Pressure Air Temp Water Temp Dewpoint Dewpoint Depression Visibility Wind Speed Wind Dir Waves Ship Positions

Catalonia

Last reported at 2017-Aug-19 14:33 UTC. Time now 2017-Aug-19 15:05 UTC.
Position N 48°06' W 005°39'.

Length 189 m; draft 10.1 m.

Type: Cargo ship. MMSI: 215929000.

Date/timePositionNaut miles runAvg speedWind from/ knotsBaromVisibWave heightAir tempDewpointWater temp
2017-Aug-19 14:33N 48°06' W 005°39'10610.2
2017-Aug-19 04:10N 49°33' W 004°06'211.0
2017-Aug-19 04:00N 49°34' W 004°03'510.7
2017-Aug-19 03:30N 49°36' W 003°56'510.7
2017-Aug-19 03:00N 49°39' W 003°49'510.6
2017-Aug-19 02:30N 49°42' W 003°42'510.8
2017-Aug-19 02:00N 49°45' W 003°35'611.2
2017-Aug-19 01:30N 49°48' W 003°28'611.3
2017-Aug-19 01:00N 49°50' W 003°20'611.7
2017-Aug-19 00:30N 49°53' W 003°12'612.1
2017-Aug-19 00:00N 49°56' W 003°04'612.3
2017-Aug-18 23:30N 49°59' W 002°56'612.7
2017-Aug-18 23:00N 50°01' W 002°46'713.1
2017-Aug-18 22:30N 50°03' W 002°36'2213.0
2017-Aug-18 20:51N 50°09' W 002°04'412.2
2017-Aug-18 20:30N 50°10' W 001°58'611.6
2017-Aug-18 20:01N 50°11' W 001°49'611.0
2017-Aug-18 19:31N 50°13' W 001°41'510.5
2017-Aug-18 19:00N 50°14' W 001°33'510.0
2017-Aug-18 18:30N 50°16' W 001°25'5 9.5
2017-Aug-18 18:00N 50°17' W 001°18'5 9.2
2017-Aug-18 17:30N 50°18' W 001°11'2910.0
2017-Aug-18 14:36N 50°25' W 000°27'111.4
2017-Aug-18 14:30N 50°25' W 000°25'1212.2
2017-Aug-18 13:30N 50°29' W 000°07'612.9
2017-Aug-18 13:00N 50°30' E 000°03'713.1
2017-Aug-18 12:30N 50°32' E 000°13'713.1
2017-Aug-18 12:00N 50°34' E 000°23'713.1
2017-Aug-18 11:30N 50°36' E 000°32'612.5
2017-Aug-18 11:00N 50°39' E 000°41'612.2
2017-Aug-18 10:30N 50°43' E 000°48'611.9
2017-Aug-18 10:00N 50°46' E 000°57'1211.4
2017-Aug-18 08:58N 50°52' E 001°12'610.8
2017-Aug-18 08:26N 50°56' E 001°20'410.3
2017-Aug-18 08:00N 50°59' E 001°24'510.4
2017-Aug-18 07:30N 51°03' E 001°29'510.6
2017-Aug-18 07:00N 51°06' E 001°36'611.5
2017-Aug-18 06:30N 51°11' E 001°42'612.7
2017-Aug-18 06:00N 51°16' E 001°48'713.5
2017-Aug-18 05:30N 51°21' E 001°54'611.4
2017-Aug-18 05:00N 51°25' E 002°01'613.0
2017-Aug-18 04:30N 51°22' E 002°10'612.5
2017-Aug-18 04:00N 51°21' E 002°19'713.6
2017-Aug-18 03:31N 51°23' E 002°30'713.1
2017-Aug-18 03:01N 51°23' E 002°40'510.2
2017-Aug-18 02:31N 51°22' E 002°48'612.7
2017-Aug-18 02:01N 51°23' E 002°58'612.5
2017-Aug-18 01:31N 51°24' E 003°08'713.7
2017-Aug-18 01:01N 51°25' E 003°19'714.2
2017-Aug-18 00:30N 51°25' E 003°31'4 7.8
2017-Aug-18 00:00N 51°26' E 003°37'5 9.4
2017-Aug-17 23:30N 51°23' E 003°43'612.8
2017-Aug-17 23:01N 51°21' E 003°52'612.1
2017-Aug-17 22:31N 51°26' E 003°58'4 8.4
2017-Aug-17 22:00N 51°23' E 004°03'4 9.0
2017-Aug-17 21:31N 51°23' E 004°10'3 6.9
2017-Aug-17 21:01N 51°21' E 004°14'2 3.5
2017-Aug-17 20:30N 51°21' E 004°17'0 0.0
2017-Aug-17 20:00N 51°21' E 004°17'0 0.6
2017-Aug-17 19:31N 51°21' E 004°18'3 6.6
2017-Aug-17 19:00N 51°18' E 004°20'2 3.6
2017-Aug-17 18:30N 51°17' E 004°22'0 0.1
2017-Aug-17 18:01N 51°17' E 004°22'0 0.0
2017-Aug-17 17:31N 51°17' E 004°22'0 0.0
2017-Aug-17 17:00N 51°17' E 004°22'0 0.0
2017-Aug-17 16:31N 51°17' E 004°22'0 0.0
2017-Aug-17 16:01N 51°17' E 004°22'0 0.0
2017-Aug-17 15:31N 51°17' E 004°22'0 0.0
2017-Aug-17 15:00N 51°17' E 004°22'0 0.0
2017-Aug-17 14:31N 51°17' E 004°22'0 0.0
2017-Aug-17 14:00N 51°17' E 004°22'0 0.0
2017-Aug-17 13:31N 51°17' E 004°22'0 0.0
2017-Aug-17 13:01N 51°17' E 004°22'0 0.0
2017-Aug-17 12:31N 51°17' E 004°22'0 0.0
2017-Aug-17 12:00N 51°17' E 004°22'0 0.0
2017-Aug-17 11:30N 51°17' E 004°22'0 0.0
2017-Aug-17 11:00N 51°17' E 004°22'0 0.0
2017-Aug-17 10:31N 51°17' E 004°22'0 0.0
2017-Aug-17 10:00N 51°17' E 004°22'0 0.0
2017-Aug-17 09:31N 51°17' E 004°22'0 0.0
2017-Aug-17 09:01N 51°17' E 004°22'0 0.0
2017-Aug-17 08:31N 51°17' E 004°22'0 0.0
2017-Aug-17 08:01N 51°17' E 004°22'0 0.0
2017-Aug-17 07:30N 51°17' E 004°22'0 0.0
2017-Aug-17 07:00N 51°17' E 004°22'0 0.0
2017-Aug-17 06:30N 51°17' E 004°22'0 0.0
2017-Aug-17 06:00N 51°17' E 004°22'0 0.0
2017-Aug-17 05:30N 51°17' E 004°22'0 0.0
2017-Aug-17 05:01N 51°17' E 004°22'0 0.0
2017-Aug-17 04:31N 51°17' E 004°22'0 0.0
2017-Aug-17 04:01N 51°17' E 004°22'0 0.0
2017-Aug-17 03:31N 51°17' E 004°22'0 0.0
2017-Aug-17 03:00N 51°17' E 004°22'0 0.0
2017-Aug-17 02:30N 51°17' E 004°22'0 0.0
2017-Aug-17 02:01N 51°17' E 004°22'0 0.0
2017-Aug-17 01:31N 51°17' E 004°22'0 0.0
2017-Aug-17 01:00N 51°17' E 004°22'0 0.0
2017-Aug-17 00:31N 51°17' E 004°22'0 0.0
2017-Aug-17 00:01N 51°17' E 004°22'0 0.0
2017-Aug-16 23:31N 51°17' E 004°22'0 0.0
2017-Aug-16 23:01N 51°17' E 004°22'0 0.0
2017-Aug-16 22:30N 51°17' E 004°22'0 0.0
2017-Aug-16 22:00N 51°17' E 004°22'0 0.0
2017-Aug-16 21:30N 51°17' E 004°22'0 0.0
2017-Aug-16 21:01N 51°17' E 004°22'0 0.0
2017-Aug-16 20:30N 51°17' E 004°22'0 0.0
2017-Aug-16 20:01N 51°17' E 004°22'0 0.0
2017-Aug-16 19:31N 51°17' E 004°22'0 0.0
2017-Aug-16 19:00N 51°17' E 004°22'0 0.0
2017-Aug-16 18:31N 51°17' E 004°22'0 0.0
2017-Aug-16 18:01N 51°17' E 004°22'0 0.0
2017-Aug-16 17:31N 51°17' E 004°22'0 0.0
2017-Aug-16 17:01N 51°17' E 004°22'0 0.0
2017-Aug-16 16:31N 51°17' E 004°22'0 0.0
2017-Aug-16 16:01N 51°17' E 004°22'0 0.0
2017-Aug-16 15:30N 51°17' E 004°22'0 0.0
2017-Aug-16 15:00N 51°17' E 004°22'0 0.0
2017-Aug-16 14:31N 51°17' E 004°22'0 0.0
2017-Aug-16 14:01N 51°17' E 004°22'0 0.0
2017-Aug-16 13:31N 51°17' E 004°22'0 0.0
2017-Aug-16 13:01N 51°17' E 004°22'0 0.0
2017-Aug-16 12:30N 51°17' E 004°22'0 0.0
2017-Aug-16 12:00N 51°17' E 004°22'0 0.0
2017-Aug-16 11:30N 51°17' E 004°22'0 0.0
2017-Aug-16 11:00N 51°17' E 004°22'0 0.0
2017-Aug-16 10:31N 51°17' E 004°22'0 0.0
2017-Aug-16 10:00N 51°17' E 004°22'0 0.0
2017-Aug-16 09:31N 51°17' E 004°22'0 0.0
2017-Aug-16 09:01N 51°17' E 004°22'0 0.0
2017-Aug-16 08:31N 51°17' E 004°22'0 0.1
2017-Aug-16 08:01N 51°17' E 004°22'2 3.6
2017-Aug-16 07:31N 51°18' E 004°20'3 6.5
2017-Aug-16 07:01N 51°21' E 004°17'0 0.6
2017-Aug-16 06:30N 51°21' E 004°17'0 0.0
2017-Aug-16 06:01N 51°21' E 004°17'2 3.1
2017-Aug-16 05:31N 51°21' E 004°15'4 7.7
2017-Aug-16 05:01N 51°23' E 004°09'510.7
2017-Aug-16 04:30N 51°25' E 004°02'510.7
2017-Aug-16 04:00N 51°22' E 003°55'612.1
2017-Aug-16 03:30N 51°22' E 003°45'611.6
2017-Aug-16 03:00N 51°26' E 003°40'3 6.9
2017-Aug-16 02:30N 51°26' E 003°34'5 9.8
2017-Aug-16 02:00N 51°30' E 003°28'611.1
2017-Aug-16 01:30N 51°35' E 003°24'5 9.7
2017-Aug-16 01:00N 51°39' E 003°20'611.4
2017-Aug-16 00:30N 51°44' E 003°15'610.0
2017-Aug-15 23:54N 51°50' E 003°16'1 3.0
2017-Aug-15 23:30N 51°51' E 003°17'1 1.5
2017-Aug-15 23:00N 51°52' E 003°17'3 6.7
2017-Aug-15 22:30N 51°55' E 003°18'3 6.2
2017-Aug-15 22:00N 51°58' E 003°19'0 0.3
2017-Aug-15 21:30N 51°58' E 003°19'0 0.5
2017-Aug-15 21:00N 51°58' E 003°19'0 0.8
2017-Aug-15 20:30N 51°58' E 003°19'2 3.9
2017-Aug-15 20:00N 52°00' E 003°20'3 6.1
2017-Aug-15 19:30N 52°03' E 003°21'612.3
2017-Aug-15 19:00N 52°10' E 003°22'4 4.7
2017-Aug-15 18:14N 52°13' E 003°25'2 6.1
2017-Aug-15 17:59N 52°14' E 003°26'1 0.7
2017-Aug-15 17:11N 52°14' E 003°26'0 0.5
2017-Aug-15 16:55N 52°14' E 003°25'0 0.5
2017-Aug-15 16:29N 52°14' E 003°25'1 1.0
2017-Aug-15 15:58N 52°14' E 003°25'1 2.4
2017-Aug-15 15:30N 52°16' E 003°25'4 8.5
2017-Aug-15 14:59N 52°20' E 003°25'613.6
2017-Aug-15 14:30N 52°26' E 003°25'2513.3
2017-Aug-15 12:38N 52°48' E 003°44'212.9
2017-Aug-15 12:29N 52°50' E 003°47'612.7
2017-Aug-15 12:00N 52°54' E 003°54'612.4
2017-Aug-15 11:29N 52°58' E 004°02'612.1
2017-Aug-15 11:00N 53°02' E 004°09'611.8
2017-Aug-15 10:30N 53°06' E 004°17'611.5
2017-Aug-15 10:00N 53°10' E 004°23'510.7
2017-Aug-15 09:30N 53°15' E 004°28'510.5
2017-Aug-15 09:00N 53°19' E 004°31'510.8
2017-Aug-15 08:30N 53°25' E 004°34'510.8
2017-Aug-15 08:00N 53°29' E 004°40'612.9
2017-Aug-15 07:30N 53°31' E 004°50'713.6
2017-Aug-15 07:00N 53°34' E 005°00'713.8
2017-Aug-15 06:30N 53°36' E 005°11'713.9
2017-Aug-15 06:00N 53°39' E 005°22'713.9
2017-Aug-15 05:30N 53°41' E 005°34'713.7
2017-Aug-15 05:00N 53°43' E 005°45'713.6
2017-Aug-15 04:30N 53°45' E 005°56'6012.7
2017-Aug-14 23:45N 54°01' E 007°34'312.8
2017-Aug-14 23:30N 54°01' E 007°39'613.0
2017-Aug-14 23:00N 54°01' E 007°50'713.7
2017-Aug-14 22:30N 54°01' E 008°02'713.4
2017-Aug-14 22:00N 54°01' E 008°13'715.1
2017-Aug-14 21:30N 53°59' E 008°26'816.8
2017-Aug-14 21:00N 53°56' E 008°39'815.4
2017-Aug-14 20:31N 53°50' E 008°48'816.4
2017-Aug-14 20:00N 53°52' E 009°02'611.6
2017-Aug-14 19:30N 53°53' E 009°11'510.8
2017-Aug-14 19:00N 53°51' E 009°20'612.5
2017-Aug-14 18:30N 53°45' E 009°24'611.8
2017-Aug-14 18:00N 53°41' E 009°30'5 9.8
2017-Aug-14 17:30N 53°36' E 009°35'5 9.7
2017-Aug-14 17:00N 53°34' E 009°42'5 9.4
2017-Aug-14 16:30N 53°33' E 009°50'4 7.2
2017-Aug-14 16:01N 53°32' E 009°56'3 5.3
2017-Aug-14 15:30N 53°30' E 009°58'1 2.5
2017-Aug-14 15:00N 53°29' E 009°59'0 0.0
2017-Aug-14 14:30N 53°29' E 009°59'0 0.0
2017-Aug-14 14:00N 53°29' E 009°59'0 0.0
2017-Aug-14 13:30N 53°29' E 009°59'0 0.0
2017-Aug-14 13:00N 53°29' E 009°59'0 0.0
2017-Aug-14 12:30N 53°29' E 009°59'0 0.0
2017-Aug-14 12:00N 53°29' E 009°59'0 0.0
2017-Aug-14 11:30N 53°29' E 009°59'0 0.0
2017-Aug-14 11:00N 53°29' E 009°59'0 0.0
2017-Aug-14 10:30N 53°29' E 009°59'0 0.0
2017-Aug-14 10:00N 53°29' E 009°59'0 0.0
2017-Aug-14 09:30N 53°29' E 009°59'0 0.0
2017-Aug-14 09:00N 53°29' E 009°59'0 0.0
2017-Aug-14 08:30N 53°29' E 009°59'0 0.0
2017-Aug-14 08:00N 53°29' E 009°59'0 0.0
2017-Aug-14 07:30N 53°29' E 009°59'0 0.0
2017-Aug-14 07:00N 53°29' E 009°59'0 0.0
2017-Aug-14 06:30N 53°29' E 009°59'0 0.0
2017-Aug-14 06:00N 53°29' E 009°59'0 0.0
2017-Aug-14 05:30N 53°29' E 009°59'0 0.0
2017-Aug-14 05:00N 53°29' E 009°59'0 0.0
2017-Aug-14 04:27N 53°29' E 009°59'0 0.0
2017-Aug-14 04:00N 53°29' E 009°59'0 0.0
2017-Aug-14 03:30N 53°29' E 009°59'0 0.0
2017-Aug-14 03:00N 53°29' E 009°59'0 0.0
2017-Aug-14 02:30N 53°29' E 009°59'0 0.0
2017-Aug-14 02:00N 53°29' E 009°59'0 0.0
2017-Aug-14 01:30N 53°29' E 009°59'0 0.0
2017-Aug-14 01:00N 53°29' E 009°59'0 0.0
2017-Aug-14 00:30N 53°29' E 009°59'0 0.0
2017-Aug-14 00:00N 53°29' E 009°59'0 0.0
2017-Aug-13 23:30N 53°29' E 009°59'0 0.0
2017-Aug-13 23:00N 53°29' E 009°59'0 0.0
2017-Aug-13 22:30N 53°29' E 009°59'0 0.0
2017-Aug-13 22:00N 53°29' E 009°59'0 0.0
2017-Aug-13 21:30N 53°29' E 009°59'0 0.0
2017-Aug-13 21:00N 53°29' E 009°59'0 0.0
2017-Aug-13 20:30N 53°29' E 009°59'0 0.0
2017-Aug-13 20:00N 53°29' E 009°59'0 0.0
2017-Aug-13 19:30N 53°29' E 009°59'0 0.0
2017-Aug-13 19:00N 53°29' E 009°59'0 0.0
2017-Aug-13 18:30N 53°29' E 009°59'0 0.0
2017-Aug-13 18:00N 53°29' E 009°59'0 0.0
2017-Aug-13 17:30N 53°29' E 009°59'0 0.0
2017-Aug-13 17:00N 53°29' E 009°59'0 0.0
2017-Aug-13 16:30N 53°29' E 009°59'0 0.0
2017-Aug-13 16:00N 53°29' E 009°59'0 0.0
2017-Aug-13 15:30N 53°29' E 009°59'0 0.0
2017-Aug-13 15:00N 53°29' E 009°59'0 0.0
2017-Aug-13 14:30N 53°29' E 009°59'0 0.0
2017-Aug-13 14:00N 53°29' E 009°59'0 0.0
2017-Aug-13 13:30N 53°29' E 009°59'0 0.0
2017-Aug-13 13:00N 53°29' E 009°59'0 0.0
2017-Aug-13 12:30N 53°29' E 009°59'0 0.0
2017-Aug-13 12:00N 53°29' E 009°59'0 0.0
2017-Aug-13 11:30N 53°29' E 009°59'0 0.0
2017-Aug-13 11:00N 53°29' E 009°59'0 0.0
2017-Aug-13 10:30N 53°29' E 009°59'0 0.0
2017-Aug-13 10:00N 53°29' E 009°59'0 0.0
2017-Aug-13 09:30N 53°29' E 009°59'0 0.0
2017-Aug-13 09:00N 53°29' E 009°59'0 0.0
2017-Aug-13 08:30N 53°29' E 009°59'0 0.0
2017-Aug-13 08:00N 53°29' E 009°59'0 0.0
2017-Aug-13 07:30N 53°29' E 009°59'0 0.0
2017-Aug-13 07:00N 53°29' E 009°59'0 0.0
2017-Aug-13 06:30N 53°29' E 009°59'0 0.0
2017-Aug-13 06:00N 53°29' E 009°59'0 0.0
2017-Aug-13 05:30N 53°29' E 009°59'0 0.0
2017-Aug-13 05:00N 53°29' E 009°59'0 0.0
2017-Aug-13 04:30N 53°29' E 009°59'0 0.0
2017-Aug-13 04:00N 53°29' E 009°59'0 0.0
2017-Aug-13 03:30N 53°29' E 009°59'0 0.0
2017-Aug-13 03:00N 53°29' E 009°59'0 0.0
2017-Aug-13 02:30N 53°29' E 009°59'0 0.0
2017-Aug-13 02:00N 53°29' E 009°59'0 0.0
2017-Aug-13 01:27N 53°29' E 009°59'0 0.0
2017-Aug-13 01:00N 53°29' E 009°59'0 0.0
2017-Aug-13 00:30N 53°29' E 009°59'0 0.0
2017-Aug-13 00:00N 53°29' E 009°59'0 0.0
2017-Aug-12 23:27N 53°29' E 009°59'0 0.0
2017-Aug-12 23:00N 53°29' E 009°59'0 0.0
2017-Aug-12 22:30N 53°29' E 009°59'0 0.0
2017-Aug-12 22:00N 53°29' E 009°59'0 0.0
2017-Aug-12 21:30N 53°29' E 009°59'0 0.0
2017-Aug-12 21:00N 53°29' E 009°59'0 0.0
2017-Aug-12 20:30N 53°29' E 009°59'0 0.0
2017-Aug-12 20:00N 53°29' E 009°59'0 0.0
2017-Aug-12 19:30N 53°29' E 009°59'0 0.0
2017-Aug-12 19:00N 53°29' E 009°59'0 0.0
2017-Aug-12 18:30N 53°29' E 009°59'0 0.0
2017-Aug-12 18:00N 53°29' E 009°59'0 0.0
2017-Aug-12 17:30N 53°29' E 009°59'0 0.0
2017-Aug-12 17:00N 53°29' E 009°59'0 0.0
2017-Aug-12 16:30N 53°29' E 009°59'0 0.0
2017-Aug-12 16:00N 53°29' E 009°59'0 0.0
2017-Aug-12 15:27N 53°29' E 009°59'0 0.0
2017-Aug-12 15:00N 53°29' E 009°59'0 0.0
2017-Aug-12 14:30N 53°29' E 009°59'0 0.0
2017-Aug-12 14:00N 53°29' E 009°59'0 0.0
2017-Aug-12 13:30N 53°29' E 009°59'0 0.0
2017-Aug-12 13:00N 53°29' E 009°59'0 0.0
2017-Aug-12 12:30N 53°29' E 009°59'0 0.0
2017-Aug-12 12:00N 53°29' E 009°59'0 0.0
2017-Aug-12 11:30N 53°29' E 009°59'0 0.0
2017-Aug-12 11:00N 53°29' E 009°59'0 0.0
2017-Aug-12 10:30N 53°29' E 009°59'0 0.0
2017-Aug-12 10:00N 53°29' E 009°59'0 0.0
2017-Aug-12 09:30N 53°29' E 009°59'0 0.0
2017-Aug-12 09:00N 53°29' E 009°59'0 0.0
2017-Aug-12 08:28N 53°29' E 009°59'0 0.0
2017-Aug-12 07:58N 53°29' E 009°59'0 0.0
2017-Aug-12 07:28N 53°29' E 009°59'0 0.0
2017-Aug-12 06:55N 53°29' E 009°59'0 0.0
2017-Aug-12 06:28N 53°29' E 009°59'0 0.0
2017-Aug-12 05:58N 53°29' E 009°59'0 0.0
2017-Aug-12 05:28N 53°29' E 009°59'0 0.0
2017-Aug-12 04:58N 53°29' E 009°59'0 0.0
2017-Aug-12 04:28N 53°29' E 009°59'0 0.0
2017-Aug-12 03:58N 53°29' E 009°59'0 0.0
2017-Aug-12 03:28N 53°29' E 009°59'0 0.0
2017-Aug-12 02:58N 53°29' E 009°59'0 0.0
2017-Aug-12 02:28N 53°29' E 009°59'0 0.0
2017-Aug-12 01:58N 53°29' E 009°59'0 0.0
2017-Aug-12 01:28N 53°29' E 009°59'0 0.0
2017-Aug-12 00:58N 53°29' E 009°59'0 0.0
2017-Aug-12 00:28N 53°29' E 009°59'0 0.0
2017-Aug-11 23:58N 53°29' E 009°59'0 0.3
2017-Aug-11 23:31N 53°29' E 009°59'1 2.0
2017-Aug-11 23:01N 53°30' E 009°58'1 1.0
2017-Aug-11 22:30N 53°30' E 009°57'0 0.1
2017-Aug-11 22:01N 53°30' E 009°57'0 0.0
2017-Aug-11 21:29N 53°30' E 009°57'0 0.0
2017-Aug-11 20:59N 53°30' E 009°57'0 0.0
2017-Aug-11 20:29N 53°30' E 009°57'0 0.0
2017-Aug-11 19:59N 53°30' E 009°57'0 0.0
2017-Aug-11 19:29N 53°30' E 009°57'0 0.0
2017-Aug-11 18:59N 53°30' E 009°57'0 0.0
2017-Aug-11 18:29N 53°30' E 009°57'0 0.0
2017-Aug-11 17:59N 53°30' E 009°57'0 0.0
2017-Aug-11 17:26N 53°30' E 009°57'0 0.0
2017-Aug-11 16:59N 53°30' E 009°57'0 0.0
2017-Aug-11 16:29N 53°30' E 009°57'0 0.0
2017-Aug-11 15:59N 53°30' E 009°57'0 0.0
2017-Aug-11 15:29N 53°30' E 009°57'0 0.0
2017-Aug-11 14:59N 53°30' E 009°57'0 0.0
2017-Aug-11 13:59N 53°30' E 009°57'0 0.5
2017-Aug-11 13:31N 53°30' E 009°57'3 5.3
2017-Aug-11 13:01N 53°32' E 009°54'4 8.5
2017-Aug-11 12:30N 53°33' E 009°47'4 8.9
2017-Aug-11 12:01N 53°34' E 009°40'510.7
2017-Aug-11 11:31N 53°37' E 009°33'510.2
2017-Aug-11 11:00N 53°42' E 009°29'612.0
2017-Aug-11 10:30N 53°47' E 009°23'611.5
2017-Aug-11 10:01N 53°52' E 009°18'510.6
2017-Aug-11 09:30N 53°53' E 009°09'4 8.1
2017-Aug-11 09:00N 53°52' E 009°02'510.5
2017-Aug-11 08:30N 53°50' E 008°54'510.0
2017-Aug-11 08:00N 53°51' E 008°45'510.3
2017-Aug-11 07:30N 53°55' E 008°40'510.4
2017-Aug-11 07:00N 53°58' E 008°33'510.3
2017-Aug-11 06:30N 53°59' E 008°24'611.9
2017-Aug-11 06:01N 53°60' E 008°14'5 9.6
2017-Aug-11 05:31N 53°59' E 008°06'4 8.4
2017-Aug-11 05:00N 53°58' E 007°59'611.6
2017-Aug-11 04:30N 53°57' E 007°49'7612.5
2017-Aug-10 22:27N 53°38' E 005°45'1114.0
2017-Aug-10 21:40N 53°35' E 005°28'213.6
2017-Aug-10 21:30N 53°34' E 005°24'713.6
2017-Aug-10 21:00N 53°32' E 005°14'713.7
2017-Aug-10 20:31N 53°29' E 005°03'713.8
2017-Aug-10 20:00N 53°27' E 004°52'714.1
2017-Aug-10 19:30N 53°23' E 004°42'714.8
2017-Aug-10 19:00N 53°17' E 004°36'714.8
2017-Aug-10 18:30N 53°10' E 004°30'815.1
2017-Aug-10 18:00N 53°03' E 004°25'815.0
2017-Aug-10 17:30N 52°57' E 004°19'714.8
2017-Aug-10 17:00N 52°50' E 004°13'714.7
2017-Aug-10 16:30N 52°44' E 004°06'714.6
2017-Aug-10 16:00N 52°38' E 003°59'714.4
2017-Aug-10 15:30N 52°34' E 003°50'814.1
2017-Aug-10 14:56N 52°28' E 003°40'5912.5
2017-Aug-10 10:14N 51°46' E 002°33'311.1
2017-Aug-10 09:58N 51°44' E 002°31'511.0
2017-Aug-10 09:30N 51°40' E 002°25'611.2
2017-Aug-10 09:00N 51°35' E 002°20'611.2
2017-Aug-10 08:30N 51°31' E 002°14'611.7
2017-Aug-10 08:00N 51°26' E 002°08'612.1
2017-Aug-10 07:30N 51°22' E 002°02'612.1
2017-Aug-10 07:01N 51°17' E 001°55'612.0
2017-Aug-10 06:30N 51°13' E 001°49'612.2
2017-Aug-10 06:01N 51°08' E 001°43'612.5
2017-Aug-10 05:31N 51°03' E 001°37'713.0
2017-Aug-10 05:00N 50°58' E 001°30'713.3
2017-Aug-10 04:30N 50°53' E 001°24'714.0
2017-Aug-10 04:00N 50°46' E 001°22'713.6
2017-Aug-10 03:30N 50°40' E 001°16'1713.6
2017-Aug-10 02:16N 50°29' E 000°56'513.4
2017-Aug-10 01:55N 50°27' E 000°49'1213.3
2017-Aug-10 01:01N 50°24' E 000°31'013.6
2017-Aug-10 01:00N 50°24' E 000°30'713.5
2017-Aug-10 00:30N 50°23' E 000°20'713.7
2017-Aug-10 00:00N 50°21' E 000°10'714.0
2017-Aug-09 23:30N 50°19' W 000°00'714.2
2017-Aug-09 23:00N 50°17' W 000°11'714.6
2017-Aug-09 22:30N 50°15' W 000°22'2215.1
2017-Aug-09 21:01N 50°09' W 000°56'015.1
2017-Aug-09 21:00N 50°08' W 000°56'815.5
2017-Aug-09 20:30N 50°07' W 001°08'815.5
2017-Aug-09 20:01N 50°05' W 001°20'815.2
2017-Aug-09 19:30N 50°03' W 001°31'714.9
2017-Aug-09 19:01N 50°01' W 001°42'714.3
2017-Aug-09 18:30N 49°59' W 001°53'713.8
2017-Aug-09 18:00N 49°57' W 002°03'712.9
2017-Aug-09 17:30N 49°56' W 002°13'1012.0
2017-Aug-09 16:42N 49°53' W 002°27'1012.0
2017-Aug-09 15:51N 49°50' W 002°43'411.6
2017-Aug-09 15:31N 49°49' W 002°48'611.6
2017-Aug-09 15:01N 49°48' W 002°57'  

Dump ship's entire track history